Time,TemperatureF,DewpointF,PressureIn,WindDirection,WindDirectionDegrees,WindSpeedMPH,WindSpeedGustMPH,Humidity,HourlyPrecipIn,Conditions,Clouds,dailyrainin,SoftwareType,DateUTC
2013-02-16 00:03:00,55.4,43.3,30.27,NNE,23,10.0,15.0,64,0.00,,,0.00,meteohub,2013-02-16 06:03:00,
2013-02-16 00:08:00,55.2,43.7,30.28,NNE,16,8.0,15.0,65,0.00,,,0.00,meteohub,2013-02-16 06:08:00,
2013-02-16 00:13:00,55.4,43.3,30.28,NW,307,8.0,15.0,64,0.00,,,0.00,meteohub,2013-02-16 06:13:00,
2013-02-16 00:18:00,55.4,43.3,30.27,NE,37,5.0,17.0,64,0.00,,,0.00,meteohub,2013-02-16 06:18:00,
2013-02-16 00:23:00,55.2,43.7,30.29,NNW,341,5.0,17.0,65,0.00,,,0.00,meteohub,2013-02-16 06:23:00,
2013-02-16 00:28:00,55.2,43.3,30.29,North,354,11.0,17.0,64,0.00,,,0.00,meteohub,2013-02-16 06:28:00,
2013-02-16 00:33:00,55.0,42.6,30.29,NE,46,7.0,14.0,63,0.00,,,0.00,meteohub,2013-02-16 06:33:00,
2013-02-16 00:38:00,55.0,42.6,30.29,NW,319,13.0,19.0,63,0.00,,,0.00,meteohub,2013-02-16 06:38:00,
2013-02-16 00:43:00,54.9,42.4,30.29,North,356,13.0,19.0,63,0.00,,,0.00,meteohub,2013-02-16 06:43:00,
2013-02-16 00:48:00,54.7,42.3,30.30,NE,41,16.0,19.0,63,0.00,,,0.00,meteohub,2013-02-16 06:48:00,
2013-02-16 00:53:00,54.7,42.3,30.30,NNW,348,10.0,19.0,63,0.00,,,0.00,meteohub,2013-02-16 06:53:00,
2013-02-16 00:58:00,54.7,41.9,30.30,NE,41,16.0,19.0,62,0.00,,,0.00,meteohub,2013-02-16 06:58:00,
2013-02-16 01:03:00,54.5,41.7,30.30,NNW,341,12.0,24.0,62,0.00,,,0.00,meteohub,2013-02-16 07:03:00,
2013-02-16 01:08:00,54.3,41.5,30.30,NE,43,6.0,24.0,62,0.00,,,0.00,meteohub,2013-02-16 07:08:00,
2013-02-16 01:13:00,54.3,41.5,30.31,NNE,19,12.0,24.0,62,0.00,,,0.00,meteohub,2013-02-16 07:13:00,
2013-02-16 01:18:00,54.3,41.5,30.30,NNE,19,16.0,21.0,62,0.00,,,0.00,meteohub,2013-02-16 07:18:00,
2013-02-16 01:23:00,54.1,41.4,30.30,North,6,14.0,21.0,62,0.00,,,0.00,meteohub,2013-02-16 07:23:00,
2013-02-16 01:28:00,54.1,41.4,30.31,North,358,14.0,21.0,62,0.00,,,0.00,meteohub,2013-02-16 07:28:00,
2013-02-16 01:33:00,54.1,41.4,30.31,NE,39,7.0,21.0,62,0.00,,,0.00,meteohub,2013-02-16 07:33:00,
2013-02-16 01:38:00,54.0,40.8,30.31,North,8,16.0,19.0,61,0.00,,,0.00,meteohub,2013-02-16 07:38:00,
2013-02-16 01:44:00,54.0,40.8,30.31,NNW,333,10.0,19.0,61,0.00,,,0.00,meteohub,2013-02-16 07:44:00,
2013-02-16 01:49:00,54.0,40.8,30.31,NNW,333,11.0,18.0,61,0.00,,,0.00,meteohub,2013-02-16 07:49:00,
2013-02-16 01:54:00,53.8,41.0,30.31,NNE,25,12.0,18.0,62,0.00,,,0.00,meteohub,2013-02-16 07:54:00,
2013-02-16 01:59:00,53.6,41.4,30.31,North,6,13.0,19.0,63,0.00,,,0.00,meteohub,2013-02-16 07:59:00,
2013-02-16 02:04:00,53.4,41.2,30.31,NNW,341,7.0,19.0,63,0.00,,,0.00,meteohub,2013-02-16 08:04:00,
2013-02-16 02:09:00,53.2,41.4,30.31,NNW,346,10.0,19.0,64,0.00,,,0.00,meteohub,2013-02-16 08:09:00,
2013-02-16 02:14:00,53.2,41.4,30.32,North,358,14.0,15.0,64,0.00,,,0.00,meteohub,2013-02-16 08:14:00,
2013-02-16 02:19:00,53.1,41.2,30.32,NW,319,8.0,16.0,64,0.00,,,0.00,meteohub,2013-02-16 08:19:00,
2013-02-16 02:24:00,53.1,41.2,30.32,North,356,15.0,17.0,64,0.00,,,0.00,meteohub,2013-02-16 08:24:00,
2013-02-16 02:29:00,52.9,40.3,30.31,North,9,11.0,17.0,62,0.00,,,0.00,meteohub,2013-02-16 08:29:00,
2013-02-16 02:34:00,52.5,39.4,30.31,NW,326,18.0,18.0,61,0.00,,,0.00,meteohub,2013-02-16 08:34:00,
2013-02-16 02:39:00,52.3,39.4,30.31,NNE,26,10.0,19.0,61,0.00,,,0.00,meteohub,2013-02-16 08:39:00,
2013-02-16 02:44:00,52.2,39.6,30.31,NNE,26,11.0,19.0,62,0.00,,,0.00,meteohub,2013-02-16 08:44:00,
2013-02-16 02:49:00,52.0,39.4,30.31,NNW,330,6.0,19.0,62,0.00,,,0.00,meteohub,2013-02-16 08:49:00,
2013-02-16 02:54:00,51.8,39.6,30.32,NNW,342,9.0,15.0,63,0.00,,,0.00,meteohub,2013-02-16 08:54:00,
2013-02-16 02:59:00,51.6,39.4,30.32,North,357,6.0,15.0,63,0.00,,,0.00,meteohub,2013-02-16 08:59:00,
2013-02-16 03:04:00,51.4,39.2,30.32,NNW,348,6.0,15.0,63,0.00,,,0.00,meteohub,2013-02-16 09:04:00,
2013-02-16 03:09:00,51.4,39.2,30.32,North,350,6.0,13.0,63,0.00,,,0.00,meteohub,2013-02-16 09:09:00,
2013-02-16 03:14:00,51.3,39.0,30.32,North,9,10.0,13.0,63,0.00,,,0.00,meteohub,2013-02-16 09:14:00,
2013-02-16 03:19:00,51.3,39.0,30.32,NNW,340,12.0,13.0,63,0.00,,,0.00,meteohub,2013-02-16 09:19:00,
2013-02-16 03:24:00,51.1,38.5,30.33,NW,323,7.0,13.0,62,0.00,,,0.00,meteohub,2013-02-16 09:24:00,
2013-02-16 03:29:00,51.1,38.1,30.33,NW,309,10.0,13.0,61,0.00,,,0.00,meteohub,2013-02-16 09:29:00,
2013-02-16 03:34:00,51.1,37.8,30.33,NNW,330,6.0,15.0,60,0.00,,,0.00,meteohub,2013-02-16 09:34:00,
2013-02-16 03:39:00,51.1,37.2,30.33,NNW,328,5.0,15.0,59,0.00,,,0.00,meteohub,2013-02-16 09:39:00,
2013-02-16 03:44:00,51.1,36.3,30.33,NNW,341,10.0,15.0,57,0.00,,,0.00,meteohub,2013-02-16 09:44:00,
2013-02-16 03:49:00,50.9,34.0,30.33,NE,36,10.0,16.0,52,0.00,,,0.00,meteohub,2013-02-16 09:49:00,
2013-02-16 03:54:00,50.5,33.1,30.33,NNW,338,5.0,16.0,51,0.00,,,0.00,meteohub,2013-02-16 09:54:00,
2013-02-16 03:59:00,50.4,32.9,30.33,North,8,8.0,17.0,51,0.00,,,0.00,meteohub,2013-02-16 09:59:00,
2013-02-16 04:04:00,50.2,32.7,30.33,NNE,33,6.0,17.0,51,0.00,,,0.00,meteohub,2013-02-16 10:04:00,
2013-02-16 04:09:00,50.2,32.7,30.34,North,6,6.0,16.0,51,0.00,,,0.00,meteohub,2013-02-16 10:09:00,
2013-02-16 04:14:00,50.0,32.2,30.34,North,352,9.0,13.0,50,0.00,,,0.00,meteohub,2013-02-16 10:14:00,
2013-02-16 04:19:00,49.8,32.0,30.34,NNW,341,8.0,14.0,50,0.00,,,0.00,meteohub,2013-02-16 10:19:00,
2013-02-16 04:24:00,49.6,31.8,30.35,NNW,334,7.0,14.0,50,0.00,,,0.00,meteohub,2013-02-16 10:24:00,
2013-02-16 04:29:00,49.5,31.6,30.35,NW,310,6.0,14.0,50,0.00,,,0.00,meteohub,2013-02-16 10:29:00,
2013-02-16 04:34:00,49.3,31.5,30.35,NE,41,9.0,14.0,50,0.00,,,0.00,meteohub,2013-02-16 10:34:00,
2013-02-16 04:39:00,49.3,30.9,30.35,NW,326,7.0,14.0,49,0.00,,,0.00,meteohub,2013-02-16 10:39:00,
2013-02-16 04:44:00,48.9,31.1,30.35,NNW,327,6.0,14.0,50,0.00,,,0.00,meteohub,2013-02-16 10:44:00,
2013-02-16 04:49:00,48.7,30.4,30.35,NW,318,6.0,13.0,49,0.00,,,0.00,meteohub,2013-02-16 10:49:00,
2013-02-16 04:54:00,48.6,30.2,30.35,NNW,327,5.0,13.0,49,0.00,,,0.00,meteohub,2013-02-16 10:54:00,
2013-02-16 04:59:00,48.4,30.6,30.35,NNW,337,7.0,13.0,50,0.00,,,0.00,meteohub,2013-02-16 10:59:00,
2013-02-16 05:04:00,48.2,30.4,30.35,NE,40,7.0,13.0,50,0.00,,,0.00,meteohub,2013-02-16 11:04:00,
2013-02-16 05:09:00,48.0,30.2,30.35,NNE,19,6.0,11.0,50,0.00,,,0.00,meteohub,2013-02-16 11:09:00,
2013-02-16 05:14:00,47.8,30.6,30.35,North,1,2.0,12.0,51,0.00,,,0.00,meteohub,2013-02-16 11:14:00,
2013-02-16 05:19:00,47.5,30.2,30.35,North,355,4.0,12.0,51,0.00,,,0.00,meteohub,2013-02-16 11:19:00,
2013-02-16 05:24:00,47.3,30.6,30.36,North,355,7.0,12.0,52,0.00,,,0.00,meteohub,2013-02-16 11:24:00,
2013-02-16 05:29:00,47.1,30.4,30.36,North,351,2.0,10.0,52,0.00,,,0.00,meteohub,2013-02-16 11:29:00,
2013-02-16 05:34:00,46.9,30.7,30.36,NNW,348,2.0,8.0,53,0.00,,,0.00,meteohub,2013-02-16 11:34:00,
2013-02-16 05:39:00,46.8,30.6,30.36,North,354,5.0,8.0,53,0.00,,,0.00,meteohub,2013-02-16 11:39:00,
2013-02-16 05:44:00,46.6,30.4,30.36,NNE,27,3.0,7.0,53,0.00,,,0.00,meteohub,2013-02-16 11:44:00,
2013-02-16 05:49:00,46.4,30.7,30.36,NNW,336,3.0,7.0,54,0.00,,,0.00,meteohub,2013-02-16 11:49:00,
2013-02-16 05:54:00,46.2,30.6,30.36,NNW,343,2.0,7.0,54,0.00,,,0.00,meteohub,2013-02-16 11:54:00,
2013-02-16 05:59:00,46.0,30.7,30.36,NNW,329,3.0,7.0,55,0.00,,,0.00,meteohub,2013-02-16 11:59:00,
2013-02-16 06:04:00,46.0,30.4,30.36,NW,316,3.0,7.0,54,0.00,,,0.00,meteohub,2013-02-16 12:04:00,
2013-02-16 06:09:00,45.9,30.6,30.37,NNW,340,5.0,6.0,55,0.00,,,0.00,meteohub,2013-02-16 12:09:00,
2013-02-16 06:14:00,45.7,30.4,30.37,NNW,335,1.0,5.0,55,0.00,,,0.00,meteohub,2013-02-16 12:14:00,
2013-02-16 06:20:00,44.6,29.5,30.37,NW,320,3.0,5.0,55,0.00,,,0.00,meteohub,2013-02-16 12:20:00,
2013-02-16 06:27:00,44.6,29.5,30.37,North,-999,-999.0,5.0,55,0.00,,,0.00,meteohub,2013-02-16 12:27:00,
2013-02-16 06:32:00,44.6,29.5,30.37,North,-999,-999.0,3.0,55,0.00,,,0.00,meteohub,2013-02-16 12:32:00,
2013-02-16 07:36:00,43.9,30.9,30.40,North,-999,-999.0,-999.0,60,-99.99,,,0.00,meteohub,2013-02-16 13:36:00,
2013-02-16 07:41:00,44.1,30.7,30.40,North,-999,-999.0,-999.0,59,0.00,,,0.00,meteohub,2013-02-16 13:41:00,
2013-02-16 07:46:00,44.2,30.7,30.40,North,1,4.0,6.0,59,0.00,,,0.00,meteohub,2013-02-16 13:46:00,
2013-02-16 07:51:00,44.4,30.6,30.41,NNW,344,4.0,8.0,58,0.00,,,0.00,meteohub,2013-02-16 13:51:00,
2013-02-16 07:56:00,44.8,30.6,30.41,NNW,348,4.0,8.0,57,0.00,,,0.00,meteohub,2013-02-16 13:56:00,
2013-02-16 08:01:00,45.3,30.6,30.42,NW,325,4.0,8.0,56,0.00,,,0.00,meteohub,2013-02-16 14:01:00,
2013-02-16 08:06:00,45.9,30.6,30.42,North,11,3.0,11.0,55,0.00,,,0.00,meteohub,2013-02-16 14:06:00,
2013-02-16 08:11:00,46.2,30.6,30.42,NNW,337,9.0,12.0,54,0.00,,,0.00,meteohub,2013-02-16 14:11:00,
2013-02-16 08:16:00,46.4,30.7,30.42,NW,316,6.0,12.0,54,0.00,,,0.00,meteohub,2013-02-16 14:16:00,
2013-02-16 08:21:00,46.8,30.6,30.43,NNE,13,9.0,12.0,53,0.00,,,0.00,meteohub,2013-02-16 14:21:00,
2013-02-16 08:26:00,46.8,30.6,30.43,NNE,26,4.0,13.0,53,0.00,,,0.00,meteohub,2013-02-16 14:26:00,
2013-02-16 08:31:00,47.1,30.4,30.43,NNE,15,9.0,13.0,52,0.00,,,0.00,meteohub,2013-02-16 14:31:00,
2013-02-16 08:36:00,47.1,30.4,30.43,NNW,328,8.0,13.0,52,0.00,,,0.00,meteohub,2013-02-16 14:36:00,
2013-02-16 08:41:00,47.5,31.3,30.43,NNE,13,8.0,14.0,53,0.00,,,0.00,meteohub,2013-02-16 14:41:00,
2013-02-16 08:46:00,47.8,30.6,30.43,NNW,338,9.0,14.0,51,0.00,,,0.00,meteohub,2013-02-16 14:46:00,
2013-02-16 08:51:00,48.4,31.1,30.43,North,5,8.0,12.0,51,0.00,,,0.00,meteohub,2013-02-16 14:51:00,
2013-02-16 08:56:00,48.7,30.4,30.43,NE,43,7.0,13.0,49,0.00,,,0.00,meteohub,2013-02-16 14:56:00,
2013-02-16 09:01:00,49.6,30.2,30.43,NNE,18,7.0,13.0,47,0.00,,,0.00,meteohub,2013-02-16 15:01:00,
2013-02-16 09:06:00,50.2,30.2,30.43,NE,37,7.0,13.0,46,0.00,,,0.00,meteohub,2013-02-16 15:06:00,
2013-02-16 09:11:00,50.4,29.8,30.43,NE,40,11.0,13.0,45,0.00,,,0.00,meteohub,2013-02-16 15:11:00,
2013-02-16 09:16:00,50.5,29.5,30.43,NNE,23,12.0,13.0,44,0.00,,,0.00,meteohub,2013-02-16 15:16:00,
2013-02-16 09:21:00,51.1,28.2,30.43,NNE,27,9.0,15.0,41,0.00,,,0.00,meteohub,2013-02-16 15:21:00,
2013-02-16 09:26:00,51.4,27.9,30.43,NW,316,8.0,16.0,40,0.00,,,0.00,meteohub,2013-02-16 15:26:00,
2013-02-16 09:31:00,51.8,28.2,30.43,NNE,29,8.0,16.0,40,0.00,,,0.00,meteohub,2013-02-16 15:31:00,
2013-02-16 09:36:00,52.2,27.9,30.43,NE,39,12.0,16.0,39,0.00,,,0.00,meteohub,2013-02-16 15:36:00,
2013-02-16 09:41:00,52.5,27.7,30.43,North,354,7.0,16.0,38,0.00,,,0.00,meteohub,2013-02-16 15:41:00,
2013-02-16 09:46:00,52.9,28.0,30.43,North,4,9.0,15.0,38,0.00,,,0.00,meteohub,2013-02-16 15:46:00,
2013-02-16 09:51:00,53.1,27.5,30.43,NE,41,5.0,16.0,37,0.00,,,0.00,meteohub,2013-02-16 15:51:00,
2013-02-16 09:56:00,53.1,28.0,30.43,NE,46,4.0,16.0,38,0.00,,,0.00,meteohub,2013-02-16 15:56:00,
2013-02-16 10:02:00,53.4,27.9,30.43,NNE,15,7.0,14.0,37,0.00,,,0.00,meteohub,2013-02-16 16:02:00,
2013-02-16 10:07:00,53.6,28.6,30.43,NNE,19,12.0,14.0,38,0.00,,,0.00,meteohub,2013-02-16 16:07:00,
2013-02-16 10:12:00,54.0,28.2,30.43,NW,326,7.0,14.0,37,0.00,,,0.00,meteohub,2013-02-16 16:12:00,
2013-02-16 10:17:00,54.5,28.8,30.43,NE,43,7.0,12.0,37,0.00,,,0.00,meteohub,2013-02-16 16:17:00,
2013-02-16 10:22:00,54.1,27.7,30.43,NE,37,6.0,15.0,36,0.00,,,0.00,meteohub,2013-02-16 16:22:00,
2013-02-16 10:27:00,55.0,28.6,30.43,North,0,8.0,15.0,36,0.00,,,0.00,meteohub,2013-02-16 16:27:00,
2013-02-16 10:32:00,55.0,28.6,30.43,NE,34,9.0,15.0,36,0.00,,,0.00,meteohub,2013-02-16 16:32:00,
2013-02-16 10:37:00,54.9,27.7,30.43,NNW,333,7.0,15.0,35,0.00,,,0.00,meteohub,2013-02-16 16:37:00,
2013-02-16 10:42:00,55.2,28.8,30.43,NE,49,6.0,15.0,36,0.00,,,0.00,meteohub,2013-02-16 16:42:00,
2013-02-16 10:47:00,55.2,28.0,30.43,NE,49,5.0,15.0,35,0.00,,,0.00,meteohub,2013-02-16 16:47:00,
2013-02-16 10:52:00,55.6,29.1,30.43,NE,37,2.0,12.0,36,0.00,,,0.00,meteohub,2013-02-16 16:52:00,
2013-02-16 10:57:00,56.1,28.8,30.43,NNW,329,7.0,10.0,35,0.00,,,0.00,meteohub,2013-02-16 16:57:00,
2013-02-16 11:02:00,56.1,28.0,30.43,NW,321,6.0,12.0,34,0.00,,,0.00,meteohub,2013-02-16 17:02:00,
2013-02-16 11:07:00,56.5,28.4,30.43,NW,316,6.0,12.0,34,0.00,,,0.00,meteohub,2013-02-16 17:07:00,
2013-02-16 11:12:00,56.7,27.9,30.42,NW,320,5.0,12.0,33,0.00,,,0.00,meteohub,2013-02-16 17:12:00,
2013-02-16 11:17:00,56.8,28.8,30.42,NNW,338,2.0,13.0,34,0.00,,,0.00,meteohub,2013-02-16 17:17:00,
2013-02-16 11:22:00,57.0,28.2,30.42,NNW,337,3.0,13.0,33,0.00,,,0.00,meteohub,2013-02-16 17:22:00,
2013-02-16 11:26:00,57.0,28.2,30.42,NNE,27,6.0,14.0,33,0.00,,,0.00,meteohub,2013-02-16 17:26:00,
2013-02-16 11:31:00,57.6,27.9,30.42,NW,321,11.0,14.0,32,0.00,,,0.00,meteohub,2013-02-16 17:31:00,
2013-02-16 11:37:00,57.6,27.9,30.41,NNE,24,6.0,14.0,32,0.00,,,0.00,meteohub,2013-02-16 17:37:00,
2013-02-16 11:42:00,57.9,28.2,30.41,NE,41,3.0,14.0,32,0.00,,,0.00,meteohub,2013-02-16 17:42:00,
2013-02-16 11:47:00,58.3,28.6,30.41,NNW,345,2.0,14.0,32,0.00,,,0.00,meteohub,2013-02-16 17:47:00,
2013-02-16 11:52:00,58.8,28.2,30.40,NE,43,8.0,12.0,31,0.00,,,0.00,meteohub,2013-02-16 17:52:00,
2013-02-16 11:57:00,59.2,28.6,30.40,NW,323,5.0,12.0,31,0.00,,,0.00,meteohub,2013-02-16 17:57:00,
2013-02-16 12:02:00,59.4,28.8,30.40,NW,323,5.0,14.0,31,0.00,,,0.00,meteohub,2013-02-16 18:02:00,
2013-02-16 12:07:00,58.8,28.2,30.40,NNW,333,4.0,14.0,31,0.00,,,0.00,meteohub,2013-02-16 18:07:00,
2013-02-16 12:12:00,59.7,29.8,30.39,NNE,23,5.0,14.0,32,0.00,,,0.00,meteohub,2013-02-16 18:12:00,
2013-02-16 12:17:00,59.7,28.9,30.39,NNW,343,6.0,11.0,31,0.00,,,0.00,meteohub,2013-02-16 18:17:00,
2013-02-16 12:22:00,60.1,29.3,30.38,NNE,26,8.0,10.0,31,0.00,,,0.00,meteohub,2013-02-16 18:22:00,
2013-02-16 12:27:00,60.4,29.7,30.38,NNE,25,4.0,11.0,31,0.00,,,0.00,meteohub,2013-02-16 18:27:00,
2013-02-16 12:32:00,60.4,28.9,30.38,North,354,1.0,11.0,30,0.00,,,0.00,meteohub,2013-02-16 18:32:00,
2013-02-16 12:37:00,60.4,29.7,30.38,NE,51,6.0,11.0,31,0.00,,,0.00,meteohub,2013-02-16 18:37:00,
2013-02-16 12:42:00,61.0,30.2,30.37,NE,35,8.0,13.0,31,0.00,,,0.00,meteohub,2013-02-16 18:42:00,
2013-02-16 12:47:00,61.0,30.2,30.37,NW,318,2.0,13.0,31,0.00,,,0.00,meteohub,2013-02-16 18:47:00,
2013-02-16 12:52:00,61.0,30.2,30.36,NE,54,3.0,13.0,31,0.00,,,0.00,meteohub,2013-02-16 18:52:00,
2013-02-16 12:57:00,61.3,31.3,30.36,NW,323,6.0,12.0,32,0.00,,,0.00,meteohub,2013-02-16 18:57:00,
2013-02-16 13:02:00,61.3,29.7,30.35,NW,316,2.0,11.0,30,0.00,,,0.00,meteohub,2013-02-16 19:02:00,
2013-02-16 13:07:00,61.2,30.2,30.35,WNW,297,6.0,11.0,31,0.00,,,0.00,meteohub,2013-02-16 19:07:00,
2013-02-16 13:12:00,61.0,30.2,30.35,NNE,20,8.0,11.0,31,0.00,,,0.00,meteohub,2013-02-16 19:12:00,
2013-02-16 13:17:00,61.2,30.2,30.34,North,357,8.0,11.0,31,0.00,,,0.00,meteohub,2013-02-16 19:17:00,
2013-02-16 13:22:00,61.5,30.6,30.34,NE,56,5.0,11.0,31,0.00,,,0.00,meteohub,2013-02-16 19:22:00,
2013-02-16 13:27:00,62.2,30.4,30.33,NNE,12,4.0,11.0,30,0.00,,,0.00,meteohub,2013-02-16 19:27:00,
2013-02-16 13:32:00,62.1,30.2,30.33,NNE,13,2.0,11.0,30,0.00,,,0.00,meteohub,2013-02-16 19:32:00,
2013-02-16 13:37:00,62.2,31.3,30.32,NNE,15,6.0,10.0,31,0.00,,,0.00,meteohub,2013-02-16 19:37:00,
2013-02-16 13:42:00,62.2,30.4,30.32,NE,34,8.0,10.0,30,0.00,,,0.00,meteohub,2013-02-16 19:42:00,
2013-02-16 13:47:00,61.9,30.9,30.32,WNW,293,0.0,12.0,31,0.00,,,0.00,meteohub,2013-02-16 19:47:00,
2013-02-16 13:52:00,62.6,30.7,30.31,NW,315,9.0,12.0,30,0.00,,,0.00,meteohub,2013-02-16 19:52:00,
2013-02-16 13:57:00,62.4,30.6,30.31,NNW,333,8.0,12.0,30,0.00,,,0.00,meteohub,2013-02-16 19:57:00,
2013-02-16 14:02:00,62.2,30.4,30.31,NW,307,8.0,12.0,30,0.00,,,0.00,meteohub,2013-02-16 20:02:00,
2013-02-16 14:07:00,62.2,30.4,30.30,SE,146,0.0,12.0,30,0.00,,,0.00,meteohub,2013-02-16 20:07:00,
2013-02-16 14:12:00,62.6,30.7,30.30,NW,316,0.0,11.0,30,0.00,,,0.00,meteohub,2013-02-16 20:12:00,
2013-02-16 14:17:00,63.7,30.7,30.30,West,274,5.0,11.0,29,0.00,,,0.00,meteohub,2013-02-16 20:17:00,
2013-02-16 14:22:00,63.9,30.9,30.30,WNW,298,6.0,9.0,29,0.00,,,0.00,meteohub,2013-02-16 20:22:00,
2013-02-16 14:27:00,63.5,31.5,30.29,NW,305,9.0,11.0,30,0.00,,,0.00,meteohub,2013-02-16 20:27:00,
2013-02-16 14:32:00,63.3,30.6,30.29,WNW,283,4.0,11.0,29,0.00,,,0.00,meteohub,2013-02-16 20:32:00,
2013-02-16 14:37:00,63.9,31.8,30.29,SW,219,1.0,11.0,30,0.00,,,0.00,meteohub,2013-02-16 20:37:00,
2013-02-16 14:42:00,64.2,31.3,30.28,West,262,6.0,11.0,29,0.00,,,0.00,meteohub,2013-02-16 20:42:00,
2013-02-16 14:47:00,64.4,30.6,30.28,NW,323,6.0,9.0,28,0.00,,,0.00,meteohub,2013-02-16 20:47:00,
2013-02-16 14:52:00,64.2,31.3,30.28,NNE,33,6.0,12.0,29,0.00,,,0.00,meteohub,2013-02-16 20:52:00,
2013-02-16 14:57:00,64.2,30.4,30.28,NW,307,4.0,12.0,28,0.00,,,0.00,meteohub,2013-02-16 20:57:00,
2013-02-16 15:02:00,64.4,30.6,30.27,NW,307,4.0,12.0,28,0.00,,,0.00,meteohub,2013-02-16 21:02:00,
2013-02-16 15:07:00,64.2,30.4,30.27,North,6,4.0,9.0,28,0.00,,,0.00,meteohub,2013-02-16 21:07:00,
2013-02-16 15:12:00,64.2,30.4,30.27,NNW,328,3.0,10.0,28,0.00,,,0.00,meteohub,2013-02-16 21:12:00,
2013-02-16 15:17:00,64.2,30.4,30.27,NW,316,4.0,10.0,28,0.00,,,0.00,meteohub,2013-02-16 21:17:00,
2013-02-16 15:22:00,64.2,31.3,30.27,WSW,258,0.0,10.0,29,0.00,,,0.00,meteohub,2013-02-16 21:22:00,
2013-02-16 15:27:00,65.1,30.4,30.27,NNW,329,0.0,9.0,27,0.00,,,0.00,meteohub,2013-02-16 21:27:00,
2013-02-16 15:32:00,64.9,30.2,30.27,NW,311,4.0,10.0,27,0.00,,,0.00,meteohub,2013-02-16 21:32:00,
2013-02-16 15:37:00,65.1,30.4,30.26,WNW,293,1.0,10.0,27,0.00,,,0.00,meteohub,2013-02-16 21:37:00,
2013-02-16 15:42:00,64.9,30.2,30.26,NNW,332,5.0,10.0,27,0.00,,,0.00,meteohub,2013-02-16 21:42:00,
2013-02-16 15:47:00,64.9,31.1,30.25,NW,309,2.0,10.0,28,0.00,,,0.00,meteohub,2013-02-16 21:47:00,
2013-02-16 15:52:00,65.3,31.3,30.25,WNW,283,5.0,11.0,28,0.00,,,0.00,meteohub,2013-02-16 21:52:00,
2013-02-16 15:57:00,65.1,30.4,30.25,West,270,4.0,11.0,27,0.00,,,0.00,meteohub,2013-02-16 21:57:00,
2013-02-16 16:02:00,65.5,30.6,30.25,West,259,3.0,11.0,27,0.00,,,0.00,meteohub,2013-02-16 22:02:00,
2013-02-16 16:07:00,65.3,29.5,30.25,SSW,210,2.0,11.0,26,0.00,,,0.00,meteohub,2013-02-16 22:07:00,
2013-02-16 16:12:00,65.8,30.0,30.25,NW,307,3.0,11.0,26,0.00,,,0.00,meteohub,2013-02-16 22:12:00,
2013-02-16 16:17:00,65.7,29.8,30.25,NW,307,6.0,11.0,26,0.00,,,0.00,meteohub,2013-02-16 22:17:00,
2013-02-16 16:22:00,65.5,29.7,30.25,NW,318,4.0,10.0,26,0.00,,,0.00,meteohub,2013-02-16 22:22:00,
2013-02-16 16:27:00,65.7,30.7,30.24,NNW,334,4.0,10.0,27,0.00,,,0.00,meteohub,2013-02-16 22:27:00,
2013-02-16 16:32:00,65.8,30.0,30.25,NW,323,4.0,10.0,26,0.00,,,0.00,meteohub,2013-02-16 22:32:00,
2013-02-16 16:37:00,65.7,30.7,30.25,NW,326,0.0,7.0,27,0.00,,,0.00,meteohub,2013-02-16 22:37:00,
2013-02-16 16:42:00,66.7,30.7,30.25,West,264,0.0,7.0,26,0.00,,,0.00,meteohub,2013-02-16 22:42:00,
2013-02-16 16:47:00,66.4,30.4,30.25,WNW,285,4.0,6.0,26,0.00,,,0.00,meteohub,2013-02-16 22:47:00,
2013-02-16 16:52:00,65.7,29.8,30.24,NW,309,2.0,6.0,26,0.00,,,0.00,meteohub,2013-02-16 22:52:00,
2013-02-16 16:57:00,65.5,29.7,30.24,NW,318,0.0,6.0,26,0.00,,,0.00,meteohub,2013-02-16 22:57:00,
2013-02-16 17:02:00,65.7,30.7,30.24,NNE,18,0.0,6.0,27,0.00,,,0.00,meteohub,2013-02-16 23:02:00,
2013-02-16 17:07:00,66.6,30.6,30.24,West,275,5.0,5.0,26,0.00,,,0.00,meteohub,2013-02-16 23:07:00,
2013-02-16 17:12:00,66.4,30.4,30.24,SSE,158,0.0,6.0,26,0.00,,,0.00,meteohub,2013-02-16 23:12:00,
2013-02-16 17:17:00,66.6,30.6,30.24,SSW,193,0.0,6.0,26,0.00,,,0.00,meteohub,2013-02-16 23:17:00,
2013-02-16 17:22:00,66.4,30.4,30.24,West,267,2.0,7.0,26,0.00,,,0.00,meteohub,2013-02-16 23:22:00,
2013-02-16 17:27:00,66.2,30.4,30.24,SW,228,0.0,7.0,26,0.00,,,0.00,meteohub,2013-02-16 23:27:00,
2013-02-16 17:32:00,66.4,30.4,30.23,NW,312,4.0,7.0,26,0.00,,,0.00,meteohub,2013-02-16 23:32:00,
2013-02-16 17:37:00,66.0,30.2,30.23,NW,323,0.0,4.0,26,0.00,,,0.00,meteohub,2013-02-16 23:37:00,
2013-02-16 17:42:00,66.9,30.9,30.24,SSW,207,0.0,4.0,26,0.00,,,0.00,meteohub,2013-02-16 23:42:00,
2013-02-16 17:47:00,67.1,31.1,30.23,SE,130,0.0,4.0,26,0.00,,,0.00,meteohub,2013-02-16 23:47:00,
2013-02-16 17:52:00,67.5,30.4,30.23,SSW,207,0.0,2.0,25,0.00,,,0.00,meteohub,2013-02-16 23:52:00,
2013-02-16 17:57:00,67.5,30.4,30.23,SSW,198,1.0,2.0,25,0.00,,,0.00,meteohub,2013-02-16 23:57:00,
2013-02-16 18:02:00,67.3,30.2,30.23,SSW,203,0.0,2.0,25,0.00,,,0.00,meteohub,2013-02-17 00:02:00,
2013-02-16 18:07:00,67.3,31.3,30.23,SW,214,0.0,2.0,26,0.00,,,0.00,meteohub,2013-02-17 00:07:00,
2013-02-16 18:12:00,66.6,30.6,30.23,SW,222,0.0,2.0,26,0.00,,,0.00,meteohub,2013-02-17 00:12:00,
2013-02-16 18:17:00,65.8,30.0,30.23,WSW,252,0.0,2.0,26,0.00,,,0.00,meteohub,2013-02-17 00:17:00,
2013-02-16 18:22:00,65.1,30.4,30.22,SW,218,0.0,3.0,27,0.00,,,0.00,meteohub,2013-02-17 00:22:00,
2013-02-16 18:27:00,64.2,30.4,30.23,SSE,155,1.0,3.0,28,0.00,,,0.00,meteohub,2013-02-17 00:27:00,
2013-02-16 18:32:00,63.7,30.7,30.23,SE,138,0.0,2.0,29,0.00,,,0.00,meteohub,2013-02-17 00:32:00,
2013-02-16 18:37:00,63.1,30.4,30.23,SE,138,1.0,2.0,29,0.00,,,0.00,meteohub,2013-02-17 00:37:00,
2013-02-16 18:42:00,62.8,30.9,30.23,SE,143,3.0,3.0,30,0.00,,,0.00,meteohub,2013-02-17 00:42:00,
2013-02-16 18:47:00,61.9,33.3,30.24,SE,146,7.0,7.0,34,0.00,,,0.00,meteohub,2013-02-17 00:47:00,
2013-02-16 18:52:00,60.1,35.6,30.24,ESE,115,8.0,13.0,40,0.00,,,0.00,meteohub,2013-02-17 00:52:00,
2013-02-16 18:57:00,59.2,36.1,30.24,ESE,121,7.0,13.0,42,0.00,,,0.00,meteohub,2013-02-17 00:57:00,
2013-02-16 19:02:00,58.5,36.7,30.23,SSE,150,10.0,13.0,44,0.00,,,0.00,meteohub,2013-02-17 01:02:00,
2013-02-16 19:07:00,57.9,36.7,30.24,SSE,150,4.0,12.0,45,0.00,,,0.00,meteohub,2013-02-17 01:07:00,
2013-02-16 19:12:00,57.6,36.9,30.24,SE,131,8.0,12.0,46,0.00,,,0.00,meteohub,2013-02-17 01:12:00,
2013-02-16 19:17:00,57.4,36.7,30.24,SE,137,6.0,12.0,46,0.00,,,0.00,meteohub,2013-02-17 01:17:00,
2013-02-16 19:22:00,57.0,36.5,30.24,SE,134,7.0,11.0,46,0.00,,,0.00,meteohub,2013-02-17 01:22:00,
2013-02-16 19:27:00,56.7,36.7,30.24,SE,131,7.0,9.0,47,0.00,,,0.00,meteohub,2013-02-17 01:27:00,
2013-02-16 19:32:00,56.3,36.9,30.25,SE,127,5.0,11.0,48,0.00,,,0.00,meteohub,2013-02-17 01:32:00,
2013-02-16 19:37:00,55.9,36.5,30.24,ESE,123,6.0,11.0,48,0.00,,,0.00,meteohub,2013-02-17 01:37:00,
2013-02-16 19:42:00,55.6,36.7,30.24,ESE,120,8.0,11.0,49,0.00,,,0.00,meteohub,2013-02-17 01:42:00,
2013-02-16 19:47:00,55.4,36.5,30.24,SSE,150,5.0,9.0,49,0.00,,,0.00,meteohub,2013-02-17 01:47:00,
2013-02-16 19:52:00,55.0,36.7,30.24,SE,146,3.0,9.0,50,0.00,,,0.00,meteohub,2013-02-17 01:52:00,
2013-02-16 19:57:00,54.9,36.5,30.24,SE,132,5.0,9.0,50,0.00,,,0.00,meteohub,2013-02-17 01:57:00,
2013-02-16 20:02:00,54.5,36.3,30.25,SE,141,5.0,8.0,50,0.00,,,0.00,meteohub,2013-02-17 02:02:00,
2013-02-16 20:07:00,54.1,36.3,30.25,SE,141,5.0,8.0,51,0.00,,,0.00,meteohub,2013-02-17 02:07:00,
2013-02-16 20:12:00,54.0,36.7,30.25,SE,134,6.0,8.0,52,0.00,,,0.00,meteohub,2013-02-17 02:12:00,
2013-02-16 20:17:00,53.6,36.3,30.25,SE,134,4.0,8.0,52,0.00,,,0.00,meteohub,2013-02-17 02:17:00,
2013-02-16 20:22:00,53.2,36.5,30.25,SE,141,5.0,7.0,53,0.00,,,0.00,meteohub,2013-02-17 02:22:00,
2013-02-16 20:27:00,53.2,36.5,30.25,SE,138,6.0,8.0,53,0.00,,,0.00,meteohub,2013-02-17 02:27:00,
2013-02-16 20:32:00,53.1,36.9,30.25,SE,136,5.0,8.0,54,0.00,,,0.00,meteohub,2013-02-17 02:32:00,
2013-02-16 20:37:00,52.7,36.5,30.25,SSE,155,5.0,8.0,54,0.00,,,0.00,meteohub,2013-02-17 02:37:00,
2013-02-16 20:42:00,52.3,36.1,30.25,SE,136,4.0,8.0,54,0.00,,,0.00,meteohub,2013-02-17 02:42:00,
2013-02-16 20:47:00,52.0,36.3,30.25,SE,143,5.0,8.0,55,0.00,,,0.00,meteohub,2013-02-17 02:47:00,
2013-02-16 20:52:00,51.6,36.0,30.25,SE,139,6.0,8.0,55,0.00,,,0.00,meteohub,2013-02-17 02:52:00,
2013-02-16 20:57:00,51.4,36.3,30.25,SSE,153,4.0,8.0,56,0.00,,,0.00,meteohub,2013-02-17 02:57:00,
2013-02-16 21:02:00,51.4,36.7,30.25,SSE,150,3.0,8.0,57,0.00,,,0.00,meteohub,2013-02-17 03:02:00,
2013-02-16 21:07:00,51.3,37.0,30.25,SE,143,5.0,8.0,58,0.00,,,0.00,meteohub,2013-02-17 03:07:00,
2013-02-16 21:12:00,51.1,36.9,30.25,SSE,155,4.0,8.0,58,0.00,,,0.00,meteohub,2013-02-17 03:12:00,
2013-02-16 21:17:00,51.1,37.2,30.26,SE,136,4.0,7.0,59,0.00,,,0.00,meteohub,2013-02-17 03:17:00,
2013-02-16 21:22:00,50.9,37.0,30.26,SSE,160,2.0,7.0,59,0.00,,,0.00,meteohub,2013-02-17 03:22:00,
2013-02-16 21:27:00,50.7,36.9,30.26,SE,124,4.0,7.0,59,0.00,,,0.00,meteohub,2013-02-17 03:27:00,
2013-02-16 21:32:00,50.5,36.7,30.26,SSE,152,4.0,7.0,59,0.00,,,0.00,meteohub,2013-02-17 03:32:00,
2013-02-16 21:37:00,50.4,37.0,30.26,South,181,4.0,6.0,60,0.00,,,0.00,meteohub,2013-02-17 03:37:00,
2013-02-16 21:42:00,50.4,37.4,30.26,SE,143,3.0,6.0,61,0.00,,,0.00,meteohub,2013-02-17 03:42:00,
2013-02-16 21:47:00,50.2,37.2,30.26,SE,139,0.0,6.0,61,0.00,,,0.00,meteohub,2013-02-17 03:47:00,
2013-02-16 21:52:00,50.2,37.6,30.26,SSE,155,2.0,6.0,62,0.00,,,0.00,meteohub,2013-02-17 03:52:00,
2013-02-16 21:57:00,50.2,38.1,30.26,SE,146,2.0,6.0,63,0.00,,,0.00,meteohub,2013-02-17 03:57:00,
2013-02-16 22:02:00,50.2,38.1,30.26,SSE,152,4.0,6.0,63,0.00,,,0.00,meteohub,2013-02-17 04:02:00,
2013-02-16 22:07:00,50.0,37.9,30.26,SSE,156,4.0,6.0,63,0.00,,,0.00,meteohub,2013-02-17 04:07:00,
2013-02-16 22:12:00,50.0,38.3,30.26,South,181,5.0,6.0,64,0.00,,,0.00,meteohub,2013-02-17 04:12:00,
2013-02-16 22:17:00,50.0,38.3,30.26,SSE,152,2.0,6.0,64,0.00,,,0.00,meteohub,2013-02-17 04:17:00,
2013-02-16 22:22:00,49.8,38.5,30.25,SE,141,4.0,6.0,65,0.00,,,0.00,meteohub,2013-02-17 04:22:00,
2013-02-16 22:27:00,49.8,38.5,30.26,SSE,156,3.0,6.0,65,0.00,,,0.00,meteohub,2013-02-17 04:27:00,
2013-02-16 22:32:00,49.8,38.1,30.25,SE,142,2.0,5.0,64,0.00,,,0.00,meteohub,2013-02-17 04:32:00,
2013-02-16 22:37:00,49.6,37.9,30.25,SE,124,1.0,5.0,64,0.00,,,0.00,meteohub,2013-02-17 04:37:00,
2013-02-16 22:42:00,49.6,38.3,30.25,South,169,3.0,5.0,65,0.00,,,0.00,meteohub,2013-02-17 04:42:00,
2013-02-16 22:47:00,49.3,37.9,30.25,SSE,148,2.0,5.0,65,0.00,,,0.00,meteohub,2013-02-17 04:47:00,
2013-02-16 22:52:00,49.1,38.3,30.25,SE,143,3.0,5.0,66,0.00,,,0.00,meteohub,2013-02-17 04:52:00,
2013-02-16 22:57:00,48.9,38.1,30.25,SE,143,3.0,4.0,66,0.00,,,0.00,meteohub,2013-02-17 04:57:00,
2013-02-16 23:00:00,48.9,38.1,30.25,SE,141,3.0,4.0,66,0.00,,,0.00,meteohub,2013-02-17 05:00:00,
2013-02-16 23:05:00,48.9,38.5,30.25,SSE,160,4.0,5.0,67,0.00,,,0.00,meteohub,2013-02-17 05:05:00,
2013-02-16 23:10:00,48.7,38.3,30.24,SE,143,2.0,5.0,67,0.00,,,0.00,meteohub,2013-02-17 05:10:00,
2013-02-16 23:15:00,48.6,38.5,30.25,SSE,156,2.0,5.0,68,0.00,,,0.00,meteohub,2013-02-17 05:15:00,
2013-02-16 23:20:00,48.6,38.5,30.24,SSE,150,4.0,6.0,68,0.00,,,0.00,meteohub,2013-02-17 05:20:00,
2013-02-16 23:26:00,48.4,38.7,30.24,SSE,162,3.0,6.0,69,0.00,,,0.00,meteohub,2013-02-17 05:26:00,
2013-02-16 23:31:00,48.4,38.7,30.24,SSW,203,2.0,5.0,69,0.00,,,0.00,meteohub,2013-02-17 05:31:00,
2013-02-16 23:36:00,48.2,38.8,30.24,South,180,2.0,5.0,70,0.00,,,0.00,meteohub,2013-02-17 05:36:00,
2013-02-16 23:41:00,48.6,39.9,30.24,SSW,198,2.0,6.0,72,0.00,,,0.00,meteohub,2013-02-17 05:41:00,
2013-02-16 23:46:00,48.6,39.6,30.25,South,186,3.0,8.0,71,0.00,,,0.00,meteohub,2013-02-17 05:46:00,
2013-02-16 23:51:00,48.4,39.4,30.24,SSW,207,3.0,8.0,71,0.00,,,0.00,meteohub,2013-02-17 05:51:00,
2013-02-16 23:56:00,47.8,38.8,30.24,SSW,205,3.0,8.0,71,0.00,,,0.00,meteohub,2013-02-17 05:56:00,